Airport View

Enter AWOS ICAO identifier for current METAR.

ex. KFNL

KACK 202353Z 26008KT 10SM CLR 17/15 A3013 RMK AO2 SLP201 T01720150 10206 20172 53005

21 Sep 2019 00:24

Phone: 508-325-6082

Other Area AWOS: KCQX - KMVY - KHYA - KFMH

TAF KACK 202320Z 2100/2124 26007KT P6SM FEW250 FM210900 29006KT P6SM SKC FM211700 28006KT P6SM SKC FM211900 24005KT P6SM SKC FM212100 21006KT P6SM SKC